Accueil
METAR-TAF:

Aéroports :

Bauru, São Paulo, Brésil

latitude: 22-19S, longitude: 049-04W, altitude: 590 m

Observation

Le bulletin a été fait il y a 1 heure et 7 minutes, à 21:00 UTC
Vent 3 kt de est
Température 29°C
Humidité 27%
Pression 1015 hPa
Visibilité 10 km ou plus
pas de nuages en-dessous de 1500 mètres et pas de cumulonimbus.

METAR: SBBU 272100Z 08003KT CAVOK 29/08 Q1015

Heure: 19:07 (22:07 UTC)

Prévision

Le bulletin a été fait il y a 6 heures et 37 minutes, à 15:30 UTC
Prévision valable du 27 à 18 UTC au 28 à 06 UTC
Vent 5 kt de est
Visibilité 10 km ou plus
pas de nuages en-dessous de 1500 mètres et pas de cumulonimbus.

TAF: SBBU 271530Z 2718/2806 08005KT CAVOK TX31/2718Z TN19/2805Z RMK PDW

METAR-TAF

Observations et prévisions météorologiques de plus de 4000 aéroports (messages METAR et TAF).

Les stations disponibles sont représentées par des disques jaunes et rouges sur la carte.

Passer la souris dessus pour voir le nom de la station.

Cliquer dessus pour voir les observations et prévisions météorologiques.

Pour changer de carte: cliquez sur les boutons verts avec une croix noire pour zoomer, sur le bouton vert avec un tiret pour effectuer un zoom arrière, ou sur les flèches vertes pour les cartes adjacentes.


METAR-TAF: